Time;durP1;ratioP1;P1;durP2;ratioP2;P2;SDS_P1;SDS_P2;PMS_P1;PMS_P2;Temp;Humidity;BMP_temperature;BMP_pressure;BME280_temperature;BME280_humidity;BME280_pressure;Samples;Min_cycle;Max_cycle;Signal;HPM_P1;HPM_P2
2024/03/13 00:01:32;;;;;;;11.10;5.88;;;;;;;;;;5043624;28;20175;-57
2024/03/13 00:03:59;;;;;;;11.80;6.68;;;;;;;;;;5046268;28;20051;-56
2024/03/13 00:06:26;;;;;;;10.45;5.63;;;;;;;;;;5046198;28;20076;-54
2024/03/13 00:08:53;;;;;;;11.90;5.97;;;;;;;;;;5044134;28;20667;-56
2024/03/13 00:11:19;;;;;;;11.02;5.60;;;;;;;;;;5035429;28;20350;-64
2024/03/13 00:13:48;;;;;;;11.25;5.53;;;;;;;;;;5043004;28;20041;-57
2024/03/13 00:16:14;;;;;;;13.85;6.75;;;;;;;;;;5039555;28;20041;-55
2024/03/13 00:18:41;;;;;;;11.43;6.15;;;;;;;;;;5047293;28;20053;-55
2024/03/13 00:21:08;;;;;;;11.75;5.93;;;;;;;;;;5041388;28;20072;-57
2024/03/13 00:23:35;;;;;;;10.63;5.75;;;;;;;;;;5037579;28;20045;-56
2024/03/13 00:26:01;;;;;;;11.02;5.72;;;;;;;;;;5042325;28;20052;-57
2024/03/13 00:28:28;;;;;;;10.93;5.38;;;;;;;;;;5044233;28;20661;-52
2024/03/13 00:30:58;;;;;;;10.48;5.30;;;;;;;;;;5040678;28;20056;-55
2024/03/13 00:33:25;;;;;;;14.00;6.45;;;;;;;;;;5050124;28;20044;-55
2024/03/13 00:35:54;;;;;;;11.95;5.97;;;;;;;;;;5045874;28;20102;-53
2024/03/13 00:38:25;;;;;;;12.10;6.45;;;;;;;;;;5050303;28;20049;-56
2024/03/13 00:40:52;;;;;;;10.98;6.05;;;;;;;;;;5049861;28;20049;-53
2024/03/13 00:43:20;;;;;;;10.45;5.57;;;;;;;;;;5050164;28;20049;-57
2024/03/13 00:45:48;;;;;;;13.02;5.72;;;;;;;;;;5049778;28;20636;-55
2024/03/13 00:48:17;;;;;;;11.90;5.80;;;;;;;;;;5045734;28;20463;-54
2024/03/13 00:50:46;;;;;;;12.07;6.15;;;;;;;;;;5041669;28;20049;-55
2024/03/13 00:53:15;;;;;;;10.68;5.25;;;;;;;;;;5049819;28;20115;-56
2024/03/13 00:55:42;;;;;;;10.85;5.30;;;;;;;;;;5046161;28;20068;-54
2024/03/13 00:58:09;;;;;;;10.55;6.20;;;;;;;;;;5049864;28;20049;-56
2024/03/13 01:00:37;;;;;;;10.57;5.28;;;;;;;;;;5051002;28;20056;-55
2024/03/13 01:03:04;;;;;;;11.00;6.50;;;;;;;;;;5041462;28;20045;-57
2024/03/13 01:05:32;;;;;;;13.98;7.20;;;;;;;;;;5051033;28;20056;-56
2024/03/13 01:07:59;;;;;;;13.05;7.30;;;;;;;;;;5053931;28;20443;-57
2024/03/13 01:10:27;;;;;;;12.30;7.72;;;;;;;;;;5054606;28;20511;-56
2024/03/13 01:12:54;;;;;;;11.30;7.03;;;;;;;;;;5054578;28;20045;-57
2024/03/13 01:15:21;;;;;;;13.50;7.20;;;;;;;;;;5054028;28;20072;-56
2024/03/13 01:17:48;;;;;;;12.18;6.93;;;;;;;;;;5054188;28;20103;-55
2024/03/13 01:20:17;;;;;;;13.10;7.22;;;;;;;;;;5051554;28;20060;-56
2024/03/13 01:22:47;;;;;;;13.55;7.20;;;;;;;;;;5049386;28;20131;-56
2024/03/13 01:25:15;;;;;;;12.70;7.28;;;;;;;;;;5053504;28;20045;-57
2024/03/13 01:27:42;;;;;;;10.93;6.35;;;;;;;;;;5053479;28;20053;-55
2024/03/13 01:30:11;;;;;;;11.70;6.65;;;;;;;;;;5053962;28;20055;-54
2024/03/13 01:32:39;;;;;;;12.85;6.13;;;;;;;;;;5053415;28;20049;-52
2024/03/13 01:35:06;;;;;;;12.57;6.47;;;;;;;;;;5053182;28;20128;-56
2024/03/13 01:40:19;;;;;;;11.15;5.45;;;;;;;;;;5053603;28;20080;-56
2024/03/13 01:57:31;;;;;;;10.57;6.20;;;;;;;;;;5041654;28;20049;-55
2024/03/13 02:02:48;;;;;;;10.02;5.38;;;;;;;;;;5030755;28;20119;-53
2024/03/13 02:05:17;;;;;;;9.38;5.28;;;;;;;;;;5053248;28;20531;-57
2024/03/13 02:07:44;;;;;;;9.40;5.70;;;;;;;;;;5052133;28;20049;-53
2024/03/13 02:10:11;;;;;;;9.43;5.93;;;;;;;;;;5053134;28;20059;-52
2024/03/13 02:12:39;;;;;;;10.75;5.60;;;;;;;;;;5052742;28;20483;-53
2024/03/13 02:15:07;;;;;;;11.65;6.13;;;;;;;;;;5052328;28;20053;-54
2024/03/13 02:17:38;;;;;;;11.30;6.13;;;;;;;;;;5051433;28;20060;-55
2024/03/13 02:20:07;;;;;;;10.65;5.97;;;;;;;;;;5052706;28;20056;-56
2024/03/13 02:22:36;;;;;;;11.50;5.60;;;;;;;;;;5052913;28;20146;-54
2024/03/13 02:25:03;;;;;;;12.30;6.25;;;;;;;;;;5052569;28;20049;-56
2024/03/13 02:27:32;;;;;;;10.80;5.53;;;;;;;;;;5034365;28;20052;-55
2024/03/13 02:29:59;;;;;;;10.88;5.85;;;;;;;;;;5035553;28;20085;-53
2024/03/13 02:32:26;;;;;;;9.48;5.15;;;;;;;;;;5034953;28;20056;-58
2024/03/13 02:34:53;;;;;;;9.85;5.53;;;;;;;;;;5034969;28;20049;-56
2024/03/13 02:37:20;;;;;;;10.70;5.78;;;;;;;;;;5033935;28;20044;-56
2024/03/13 02:39:47;;;;;;;10.13;5.65;;;;;;;;;;5034922;28;20056;-58
2024/03/13 02:42:16;;;;;;;9.88;5.63;;;;;;;;;;5033428;28;20077;-55
2024/03/13 02:44:44;;;;;;;11.90;5.72;;;;;;;;;;5023322;28;20049;-55
2024/03/13 02:47:11;;;;;;;10.00;5.43;;;;;;;;;;5034056;28;20049;-54
2024/03/13 02:49:38;;;;;;;9.07;4.97;;;;;;;;;;5033409;28;20063;-53
2024/03/13 02:52:06;;;;;;;11.57;5.55;;;;;;;;;;5034465;28;20531;-54
2024/03/13 02:54:33;;;;;;;9.50;5.10;;;;;;;;;;5034666;28;20083;-56
2024/03/13 02:57:00;;;;;;;10.55;5.90;;;;;;;;;;5033883;28;20048;-53
2024/03/13 02:59:27;;;;;;;9.52;4.80;;;;;;;;;;5034301;28;20057;-54
2024/03/13 03:01:53;;;;;;;12.25;6.00;;;;;;;;;;5033482;28;20041;-56
2024/03/13 03:04:21;;;;;;;9.10;5.30;;;;;;;;;;5033841;28;20135;-51
2024/03/13 03:06:47;;;;;;;7.80;4.82;;;;;;;;;;5033956;28;20049;-56
2024/03/13 03:09:14;;;;;;;8.30;4.65;;;;;;;;;;5033727;28;20067;-55
2024/03/13 03:11:44;;;;;;;10.45;5.00;;;;;;;;;;5034103;28;20053;-57
2024/03/13 03:14:12;;;;;;;8.27;4.78;;;;;;;;;;5034316;28;20079;-54
2024/03/13 03:16:39;;;;;;;10.32;5.60;;;;;;;;;;5033427;28;20045;-55
2024/03/13 03:19:06;;;;;;;8.25;4.80;;;;;;;;;;5033693;28;20053;-57
2024/03/13 03:21:33;;;;;;;9.38;4.40;;;;;;;;;;5033864;28;20049;-57
2024/03/13 03:24:00;;;;;;;8.05;4.50;;;;;;;;;;5033841;28;20077;-56
2024/03/13 03:26:28;;;;;;;8.65;4.35;;;;;;;;;;5033699;28;20536;-54
2024/03/13 03:28:55;;;;;;;8.63;4.28;;;;;;;;;;5033732;28;20045;-55
2024/03/13 03:31:23;;;;;;;9.55;4.97;;;;;;;;;;5033742;28;20424;-54
2024/03/13 03:33:51;;;;;;;9.80;4.90;;;;;;;;;;5033792;28;20049;-55
2024/03/13 03:36:19;;;;;;;7.85;4.60;;;;;;;;;;5033243;28;20067;-53
2024/03/13 03:38:46;;;;;;;8.63;3.72;;;;;;;;;;5033754;28;20515;-52
2024/03/13 03:41:14;;;;;;;6.55;4.03;;;;;;;;;;5033986;28;20132;-53
2024/03/13 03:43:41;;;;;;;6.40;4.20;;;;;;;;;;5031275;28;20044;-55
2024/03/13 03:46:08;;;;;;;5.68;3.00;;;;;;;;;;5033052;28;20432;-54
2024/03/13 03:48:35;;;;;;;7.05;2.97;;;;;;;;;;5033354;28;20084;-54
2024/03/13 03:51:02;;;;;;;6.60;3.30;;;;;;;;;;5030625;28;20045;-57
2024/03/13 03:53:29;;;;;;;6.13;2.97;;;;;;;;;;5031177;28;20049;-52
2024/03/13 03:55:57;;;;;;;6.03;2.60;;;;;;;;;;5032751;28;20059;-51
2024/03/13 03:58:24;;;;;;;5.13;2.20;;;;;;;;;;5033201;28;20053;-55
2024/03/13 04:00:52;;;;;;;5.43;2.40;;;;;;;;;;5033230;28;20055;-56
2024/03/13 04:03:19;;;;;;;3.78;2.03;;;;;;;;;;5033026;28;20132;-56
2024/03/13 04:05:46;;;;;;;4.78;2.67;;;;;;;;;;5033340;28;20077;-57
2024/03/13 04:08:14;;;;;;;4.60;2.30;;;;;;;;;;5033476;28;20056;-54
2024/03/13 04:10:42;;;;;;;4.13;1.98;;;;;;;;;;5032267;28;20106;-56
2024/03/13 04:13:10;;;;;;;3.97;2.28;;;;;;;;;;5033253;28;20059;-56
2024/03/13 04:15:37;;;;;;;4.57;2.42;;;;;;;;;;5032980;28;20451;-57
2024/03/13 04:18:05;;;;;;;4.80;2.00;;;;;;;;;;5032610;28;20059;-56
2024/03/13 04:20:32;;;;;;;3.13;1.40;;;;;;;;;;5033114;28;20049;-55
2024/03/13 04:22:59;;;;;;;3.65;1.60;;;;;;;;;;5033190;28;20056;-53
2024/03/13 04:25:26;;;;;;;4.05;1.88;;;;;;;;;;5032975;28;20049;-57
2024/03/13 04:27:54;;;;;;;3.17;1.67;;;;;;;;;;5032041;28;20060;-54
2024/03/13 04:30:21;;;;;;;3.47;1.60;;;;;;;;;;5062164;28;20059;-55
2024/03/13 04:32:49;;;;;;;2.80;1.15;;;;;;;;;;5029605;28;20460;-56
2024/03/13 04:35:19;;;;;;;2.75;1.38;;;;;;;;;;5029261;28;20139;-55
2024/03/13 04:37:46;;;;;;;2.60;1.30;;;;;;;;;;5029433;28;20056;-53
2024/03/13 04:40:13;;;;;;;3.15;1.40;;;;;;;;;;5029252;28;20132;-53
2024/03/13 04:42:40;;;;;;;2.05;1.05;;;;;;;;;;5035940;28;20055;-52
2024/03/13 04:45:07;;;;;;;2.60;1.30;;;;;;;;;;5036637;28;20084;-55
2024/03/13 04:47:35;;;;;;;3.38;1.30;;;;;;;;;;5036323;28;20122;-53
2024/03/13 04:50:02;;;;;;;2.92;1.08;;;;;;;;;;5033553;28;20608;-55
2024/03/13 04:52:29;;;;;;;2.90;1.30;;;;;;;;;;5034709;28;20049;-51
2024/03/13 04:54:56;;;;;;;3.45;1.42;;;;;;;;;;5033384;28;20058;-57
2024/03/13 04:57:23;;;;;;;2.95;1.88;;;;;;;;;;5032911;28;20118;-54
2024/03/13 04:59:50;;;;;;;2.33;1.10;;;;;;;;;;5029339;28;20080;-53
2024/03/13 05:02:17;;;;;;;3.25;1.45;;;;;;;;;;5036684;28;20110;-54
2024/03/13 05:04:44;;;;;;;3.33;1.50;;;;;;;;;;5030138;28;20049;-52
2024/03/13 05:07:12;;;;;;;2.58;1.13;;;;;;;;;;5032522;28;20049;-56
2024/03/13 05:09:40;;;;;;;2.78;1.20;;;;;;;;;;5036634;28;20067;-53
2024/03/13 05:12:07;;;;;;;2.95;1.27;;;;;;;;;;5036631;28;20045;-57
2024/03/13 05:14:34;;;;;;;2.72;1.40;;;;;;;;;;5035651;28;20041;-53
2024/03/13 05:17:01;;;;;;;3.40;1.70;;;;;;;;;;5036157;28;20072;-56
2024/03/13 05:19:28;;;;;;;3.28;1.60;;;;;;;;;;5036439;28;20424;-54
2024/03/13 05:21:55;;;;;;;3.10;1.40;;;;;;;;;;5032918;28;20075;-56
2024/03/13 05:24:21;;;;;;;2.60;1.42;;;;;;;;;;5032947;28;20060;-55
2024/03/13 05:26:48;;;;;;;3.53;1.73;;;;;;;;;;5035733;28;20052;-56
2024/03/13 05:29:15;;;;;;;3.80;1.65;;;;;;;;;;5032548;28;20049;-56
2024/03/13 05:31:42;;;;;;;2.63;1.50;;;;;;;;;;5036512;28;20059;-54
2024/03/13 05:34:09;;;;;;;3.50;1.75;;;;;;;;;;5036960;28;20063;-56
2024/03/13 05:36:38;;;;;;;3.30;1.60;;;;;;;;;;5035279;28;20120;-53
2024/03/13 05:39:06;;;;;;;3.58;1.85;;;;;;;;;;5032187;28;20060;-55
2024/03/13 05:41:34;;;;;;;3.65;1.90;;;;;;;;;;5034393;28;20453;-55
2024/03/13 05:44:01;;;;;;;3.65;1.90;;;;;;;;;;5036197;28;20554;-54
2024/03/13 05:46:28;;;;;;;3.92;1.85;;;;;;;;;;5035356;28;20226;-56
2024/03/13 05:48:55;;;;;;;3.20;1.63;;;;;;;;;;5032263;28;20075;-56
2024/03/13 05:51:22;;;;;;;4.82;1.98;;;;;;;;;;5032691;28;20103;-56
2024/03/13 05:53:50;;;;;;;3.88;2.10;;;;;;;;;;5032162;28;20559;-51
2024/03/13 05:56:16;;;;;;;3.22;1.60;;;;;;;;;;5035317;28;21655;-52
2024/03/13 05:58:43;;;;;;;3.13;1.80;;;;;;;;;;5035751;28;20057;-56
2024/03/13 06:01:14;;;;;;;4.05;2.22;;;;;;;;;;5035446;28;20064;-55
2024/03/13 06:03:41;;;;;;;3.22;2.00;;;;;;;;;;5035729;28;20099;-55
2024/03/13 06:06:08;;;;;;;4.00;1.95;;;;;;;;;;5035291;28;20060;-57
2024/03/13 06:08:35;;;;;;;4.43;2.20;;;;;;;;;;5035261;28;20531;-54
2024/03/13 06:11:05;;;;;;;4.72;2.20;;;;;;;;;;5035204;28;20136;-56
2024/03/13 06:13:31;;;;;;;4.90;2.33;;;;;;;;;;5033549;28;20100;-52
2024/03/13 06:15:58;;;;;;;4.82;2.40;;;;;;;;;;5034258;28;20056;-55
2024/03/13 06:18:25;;;;;;;5.13;2.70;;;;;;;;;;5034584;28;20049;-51
2024/03/13 06:20:52;;;;;;;4.38;2.63;;;;;;;;;;5031484;28;20049;-51
2024/03/13 06:23:20;;;;;;;3.88;2.00;;;;;;;;;;5035286;28;20514;-55
2024/03/13 06:25:48;;;;;;;4.13;2.47;;;;;;;;;;5031871;28;20071;-56
2024/03/13 06:31:02;;;;;;;6.60;2.70;;;;;;;;;;5031288;28;20067;-52
2024/03/13 06:33:29;;;;;;;5.35;3.08;;;;;;;;;;5034948;28;20057;-51
2024/03/13 06:35:56;;;;;;;5.72;3.15;;;;;;;;;;5031290;28;20563;-53
2024/03/13 06:38:23;;;;;;;7.60;3.20;;;;;;;;;;5032430;28;20508;-54
2024/03/13 06:40:50;;;;;;;6.43;3.20;;;;;;;;;;5031775;28;20481;-52
2024/03/13 06:43:17;;;;;;;7.25;3.63;;;;;;;;;;5034895;28;20136;-52
2024/03/13 06:45:47;;;;;;;5.13;2.88;;;;;;;;;;5034811;28;20056;-56
2024/03/13 06:48:15;;;;;;;4.20;2.45;;;;;;;;;;5034953;28;20045;-54
2024/03/13 06:50:41;;;;;;;5.60;2.72;;;;;;;;;;5034592;28;20504;-54
2024/03/13 06:53:08;;;;;;;5.45;2.85;;;;;;;;;;5035021;28;20462;-53
2024/03/13 06:55:35;;;;;;;5.32;2.00;;;;;;;;;;5033483;28;20049;-51
2024/03/13 06:58:02;;;;;;;4.07;1.88;;;;;;;;;;5034035;28;20045;-53
2024/03/13 07:00:32;;;;;;;4.38;1.90;;;;;;;;;;5033991;28;20060;-52
2024/03/13 07:02:59;;;;;;;4.43;1.97;;;;;;;;;;5031222;28;20140;-53
2024/03/13 07:05:26;;;;;;;5.43;2.05;;;;;;;;;;5034129;28;20456;-54
2024/03/13 07:07:53;;;;;;;4.68;2.10;;;;;;;;;;5030342;28;20052;-57
2024/03/13 07:10:20;;;;;;;5.82;2.25;;;;;;;;;;5033838;28;20080;-58
2024/03/13 07:12:48;;;;;;;2.88;1.42;;;;;;;;;;5033305;28;20461;-54
2024/03/13 07:15:14;;;;;;;3.95;1.70;;;;;;;;;;5031615;28;20053;-55
2024/03/13 07:17:42;;;;;;;3.50;1.40;;;;;;;;;;5033721;28;20060;-55
2024/03/13 07:20:10;;;;;;;3.05;1.38;;;;;;;;;;5034458;28;20476;-50
2024/03/13 07:22:38;;;;;;;2.72;1.35;;;;;;;;;;5034790;28;20089;-53
2024/03/13 07:25:08;;;;;;;4.07;1.98;;;;;;;;;;5034781;28;20059;-50
2024/03/13 07:27:35;;;;;;;3.08;1.40;;;;;;;;;;5025206;28;20050;-51
2024/03/13 07:30:04;;;;;;;4.30;1.33;;;;;;;;;;5032919;28;20091;-55
2024/03/13 07:32:31;;;;;;;2.90;1.25;;;;;;;;;;5032207;28;20128;-53
2024/03/13 07:34:58;;;;;;;3.50;1.30;;;;;;;;;;5034522;28;20060;-53
2024/03/13 07:37:25;;;;;;;4.25;1.83;;;;;;;;;;5026986;28;20052;-53
2024/03/13 07:39:53;;;;;;;5.80;1.73;;;;;;;;;;5021818;28;20488;-53
2024/03/13 07:42:20;;;;;;;4.13;1.60;;;;;;;;;;5031953;28;20186;-54
2024/03/13 07:44:47;;;;;;;3.53;1.65;;;;;;;;;;5032602;28;20055;-53
2024/03/13 07:47:14;;;;;;;3.70;1.60;;;;;;;;;;5033921;28;20052;-56
2024/03/13 07:49:43;;;;;;;3.83;1.30;;;;;;;;;;5033775;28;20122;-54
2024/03/13 07:52:12;;;;;;;2.70;1.33;;;;;;;;;;5034332;28;20056;-53
2024/03/13 07:54:39;;;;;;;4.47;1.42;;;;;;;;;;5034376;28;20056;-52
2024/03/13 07:57:07;;;;;;;3.28;1.40;;;;;;;;;;5033442;28;20044;-53
2024/03/13 07:59:35;;;;;;;3.28;1.50;;;;;;;;;;5034444;28;20061;-55
2024/03/13 08:02:02;;;;;;;3.58;1.80;;;;;;;;;;5028965;28;20435;-54
2024/03/13 08:04:29;;;;;;;4.50;1.70;;;;;;;;;;5025991;28;20179;-53
2024/03/13 08:06:58;;;;;;;5.25;2.22;;;;;;;;;;5024376;28;20127;-54
2024/03/13 08:09:28;;;;;;;4.60;2.25;;;;;;;;;;5021155;28;20432;-55
2024/03/13 08:11:54;;;;;;;3.13;1.60;;;;;;;;;;5030718;28;20053;-55
2024/03/13 08:14:22;;;;;;;3.65;1.50;;;;;;;;;;5033304;28;20052;-55
2024/03/13 08:16:49;;;;;;;3.75;1.80;;;;;;;;;;5034767;28;20047;-55
2024/03/13 08:19:16;;;;;;;3.75;1.30;;;;;;;;;;5031403;28;20049;-54
2024/03/13 08:21:43;;;;;;;3.70;1.67;;;;;;;;;;5025942;28;20503;-53
2024/03/13 08:24:10;;;;;;;2.60;1.10;;;;;;;;;;5032503;28;20048;-56
2024/03/13 08:26:37;;;;;;;3.45;1.30;;;;;;;;;;5028921;28;20113;-56
2024/03/13 08:29:04;;;;;;;2.08;1.17;;;;;;;;;;5030945;28;20520;-54
2024/03/13 08:31:32;;;;;;;2.03;1.20;;;;;;;;;;5028386;28;20057;-54
2024/03/13 08:33:59;;;;;;;3.03;1.10;;;;;;;;;;5031560;28;20056;-54
2024/03/13 08:36:25;;;;;;;2.37;1.33;;;;;;;;;;5035248;28;20048;-52
2024/03/13 08:38:52;;;;;;;2.60;1.20;;;;;;;;;;5035559;28;20255;-55
2024/03/13 08:41:19;;;;;;;1.42;0.88;;;;;;;;;;5035224;28;20076;-55
2024/03/13 08:43:47;;;;;;;2.42;1.10;;;;;;;;;;5029780;28;20056;-55
2024/03/13 08:46:14;;;;;;;2.75;1.10;;;;;;;;;;5031019;28;20059;-54
2024/03/13 08:48:41;;;;;;;2.80;1.10;;;;;;;;;;5033768;28;20059;-55
2024/03/13 08:51:09;;;;;;;3.08;1.10;;;;;;;;;;5034208;28;20060;-56
2024/03/13 08:53:36;;;;;;;2.45;1.00;;;;;;;;;;5033060;28;20556;-56
2024/03/13 08:56:03;;;;;;;2.13;1.20;;;;;;;;;;5033240;28;20049;-53
2024/03/13 08:58:30;;;;;;;2.90;1.60;;;;;;;;;;5034673;28;20619;-57
2024/03/13 09:00:57;;;;;;;3.00;1.27;;;;;;;;;;5034933;28;20118;-55
2024/03/13 09:03:24;;;;;;;3.30;1.33;;;;;;;;;;5034561;28;20064;-54
2024/03/13 09:05:52;;;;;;;2.80;1.02;;;;;;;;;;5034059;28;20059;-52
2024/03/13 09:08:19;;;;;;;2.13;1.10;;;;;;;;;;5032708;28;20087;-53
2024/03/13 09:10:46;;;;;;;3.22;1.27;;;;;;;;;;5030848;28;20056;-59
2024/03/13 09:13:13;;;;;;;1.27;0.88;;;;;;;;;;5034772;28;20056;-56
2024/03/13 09:15:40;;;;;;;2.45;1.02;;;;;;;;;;5034591;28;20487;-63
2024/03/13 09:18:07;;;;;;;1.60;0.98;;;;;;;;;;5034590;28;20500;-54
2024/03/13 09:20:35;;;;;;;1.98;0.85;;;;;;;;;;5031156;28;20054;-55
2024/03/13 09:23:02;;;;;;;2.72;1.55;;;;;;;;;;5026590;28;20462;-56
2024/03/13 09:25:29;;;;;;;1.10;0.80;;;;;;;;;;5027475;28;20452;-56
2024/03/13 09:27:56;;;;;;;2.10;0.88;;;;;;;;;;5025270;28;20447;-56
2024/03/13 09:30:22;;;;;;;2.78;1.00;;;;;;;;;;5034389;28;20052;-53
2024/03/13 09:32:49;;;;;;;1.33;0.80;;;;;;;;;;5035070;28;20132;-55
2024/03/13 09:35:17;;;;;;;2.78;0.98;;;;;;;;;;5035113;28;20049;-57
2024/03/13 09:37:44;;;;;;;1.95;0.80;;;;;;;;;;5034873;28;20041;-57
2024/03/13 09:40:13;;;;;;;1.40;0.80;;;;;;;;;;5034453;28;20049;-53
2024/03/13 09:42:39;;;;;;;1.23;0.63;;;;;;;;;;5034754;28;20045;-56
2024/03/13 09:45:08;;;;;;;2.08;0.85;;;;;;;;;;5034160;28;20057;-53
2024/03/13 09:47:34;;;;;;;1.58;0.60;;;;;;;;;;5028505;28;20049;-61
2024/03/13 09:50:05;;;;;;;2.25;0.88;;;;;;;;;;5018557;28;20111;-60
2024/03/13 09:52:33;;;;;;;4.68;0.90;;;;;;;;;;5017527;28;20496;-52
2024/03/13 09:54:59;;;;;;;2.72;0.90;;;;;;;;;;5026931;28;20378;-57
2024/03/13 09:57:27;;;;;;;1.77;0.70;;;;;;;;;;5020302;28;20421;-58
2024/03/13 09:59:56;;;;;;;1.48;0.73;;;;;;;;;;5022001;28;20073;-58
2024/03/13 10:02:23;;;;;;;2.67;1.00;;;;;;;;;;5020374;28;20057;-53
2024/03/13 10:04:50;;;;;;;2.35;0.82;;;;;;;;;;5055131;28;20148;-62
2024/03/13 10:07:18;;;;;;;0.70;0.57;;;;;;;;;;5024750;28;20037;-56
2024/03/13 10:09:46;;;;;;;2.13;0.88;;;;;;;;;;5023613;28;20075;-56
2024/03/13 10:12:12;;;;;;;1.60;0.70;;;;;;;;;;5029937;28;20048;-57
2024/03/13 10:14:39;;;;;;;0.93;0.65;;;;;;;;;;5032277;28;20474;-56
2024/03/13 10:17:07;;;;;;;1.02;0.70;;;;;;;;;;5030929;28;20619;-54
2024/03/13 10:19:34;;;;;;;2.58;1.10;;;;;;;;;;5020956;28;20396;-58
2024/03/13 10:22:01;;;;;;;1.30;0.68;;;;;;;;;;5025880;28;20592;-58
2024/03/13 10:24:28;;;;;;;1.20;0.60;;;;;;;;;;5061659;28;20075;-57
2024/03/13 10:26:55;;;;;;;2.42;0.90;;;;;;;;;;5032577;28;20084;-57
2024/03/13 10:29:22;;;;;;;2.78;1.00;;;;;;;;;;5030915;28;20098;-57
2024/03/13 10:31:49;;;;;;;1.90;0.80;;;;;;;;;;5032808;28;20067;-56
2024/03/13 10:34:16;;;;;;;1.30;0.80;;;;;;;;;;5032930;28;20061;-58
2024/03/13 10:36:43;;;;;;;2.00;0.85;;;;;;;;;;5028027;28;20504;-58
2024/03/13 10:39:11;;;;;;;1.52;0.70;;;;;;;;;;5024728;28;20056;-54
2024/03/13 10:41:44;;;;;;;2.50;0.80;;;;;;;;;;5024946;28;20053;-57
2024/03/13 10:44:11;;;;;;;2.00;0.90;;;;;;;;;;5030658;28;20136;-57
2024/03/13 10:46:37;;;;;;;1.10;0.70;;;;;;;;;;5031248;28;20060;-57
2024/03/13 10:49:06;;;;;;;2.17;0.82;;;;;;;;;;5031410;28;20065;-56
2024/03/13 10:51:33;;;;;;;2.67;1.35;;;;;;;;;;5030547;28;20107;-57
2024/03/13 10:54:03;;;;;;;1.70;0.75;;;;;;;;;;5027877;28;20045;-57
2024/03/13 10:56:30;;;;;;;1.50;0.75;;;;;;;;;;5027297;28;20081;-57
2024/03/13 10:58:56;;;;;;;1.92;0.98;;;;;;;;;;5032288;28;20045;-57
2024/03/13 11:01:23;;;;;;;1.25;0.80;;;;;;;;;;5032389;28;20052;-57
2024/03/13 11:03:57;;;;;;;1.58;0.90;;;;;;;;;;5032032;28;20049;-57
2024/03/13 11:06:25;;;;;;;2.08;1.10;;;;;;;;;;5061866;28;20057;-57
2024/03/13 11:08:52;;;;;;;1.65;1.00;;;;;;;;;;5032326;28;20045;-55
2024/03/13 11:11:19;;;;;;;3.92;1.10;;;;;;;;;;5032476;28;20439;-55
2024/03/13 11:13:50;;;;;;;2.17;1.00;;;;;;;;;;5032478;28;20400;-58
2024/03/13 11:16:17;;;;;;;1.80;1.00;;;;;;;;;;5032683;28;20627;-57
2024/03/13 11:18:45;;;;;;;2.17;1.13;;;;;;;;;;5027883;28;20048;-57
2024/03/13 11:21:12;;;;;;;1.70;1.00;;;;;;;;;;5023186;28;20124;-57
2024/03/13 11:23:40;;;;;;;2.35;1.20;;;;;;;;;;5022118;28;20145;-57
2024/03/13 11:26:09;;;;;;;1.98;1.17;;;;;;;;;;5058821;28;20049;-56
2024/03/13 11:28:36;;;;;;;2.55;1.08;;;;;;;;;;5031864;28;20045;-58
2024/03/13 11:31:05;;;;;;;1.95;1.10;;;;;;;;;;5014734;28;20524;-57
2024/03/13 11:33:32;;;;;;;2.00;1.10;;;;;;;;;;5029769;28;20140;-59
2024/03/13 11:36:00;;;;;;;3.70;1.20;;;;;;;;;;5031168;28;20102;-58
2024/03/13 11:38:28;;;;;;;2.30;1.10;;;;;;;;;;5031747;28;20073;-62
2024/03/13 11:40:55;;;;;;;3.67;1.30;;;;;;;;;;5028887;28;20053;-62
2024/03/13 11:43:23;;;;;;;2.75;1.50;;;;;;;;;;5028324;28;20519;-66
2024/03/13 11:45:50;;;;;;;2.33;1.17;;;;;;;;;;5030205;28;20059;-57
2024/03/13 11:48:17;;;;;;;2.28;1.10;;;;;;;;;;5031934;28;20041;-53
2024/03/13 11:51:07;;;;;;;2.75;1.30;;;;;;;;;;5031482;28;20053;-57
2024/03/13 11:53:35;;;;;;;2.08;1.27;;;;;;;;;;5039598;28;20053;-58
2024/03/13 11:56:03;;;;;;;1.77;0.98;;;;;;;;;;5030385;28;20053;-57
2024/03/13 11:58:32;;;;;;;2.22;1.15;;;;;;;;;;5029260;28;20501;-57
2024/03/13 12:00:59;;;;;;;3.15;1.38;;;;;;;;;;5031394;28;20523;-56
2024/03/13 12:03:30;;;;;;;2.92;1.50;;;;;;;;;;5029823;28;20053;-57
2024/03/13 12:05:59;;;;;;;1.67;1.00;;;;;;;;;;5031709;28;20071;-58
2024/03/13 12:08:26;;;;;;;2.80;1.27;;;;;;;;;;5030801;28;20044;-58
2024/03/13 12:10:54;;;;;;;2.08;1.30;;;;;;;;;;5061722;28;20144;-57
2024/03/13 12:13:21;;;;;;;3.13;1.30;;;;;;;;;;5027531;28;20084;-56
2024/03/13 12:15:48;;;;;;;2.97;1.20;;;;;;;;;;5030722;28;20132;-57
2024/03/13 12:18:16;;;;;;;2.75;1.40;;;;;;;;;;5021232;28;20057;-57
2024/03/13 12:20:43;;;;;;;2.75;1.40;;;;;;;;;;5029408;28;20159;-58
2024/03/13 12:23:12;;;;;;;2.53;1.60;;;;;;;;;;5027006;28;20493;-57
2024/03/13 12:25:40;;;;;;;2.63;1.50;;;;;;;;;;5023158;28;20048;-59
2024/03/13 12:28:15;;;;;;;3.53;1.52;;;;;;;;;;5020097;28;20679;-57
2024/03/13 12:30:43;;;;;;;3.17;1.73;;;;;;;;;;5025839;28;20057;-58
2024/03/13 12:33:11;;;;;;;3.70;1.88;;;;;;;;;;5031410;28;20084;-57
2024/03/13 12:35:38;;;;;;;2.25;1.33;;;;;;;;;;5043197;28;20055;-58
2024/03/13 12:38:05;;;;;;;4.20;1.42;;;;;;;;;;5054919;28;20056;-57
2024/03/13 12:40:33;;;;;;;2.80;1.58;;;;;;;;;;5023806;28;20049;-58
2024/03/13 12:43:00;;;;;;;3.13;1.52;;;;;;;;;;5057722;28;20053;-59
2024/03/13 12:45:29;;;;;;;3.30;1.70;;;;;;;;;;5022850;28;20050;-58
2024/03/13 12:47:55;;;;;;;3.20;1.50;;;;;;;;;;5031508;28;20047;-58
2024/03/13 12:50:22;;;;;;;4.20;1.98;;;;;;;;;;5026869;28;20041;-59
2024/03/13 12:52:49;;;;;;;2.65;1.52;;;;;;;;;;5026270;28;20045;-59
2024/03/13 12:55:17;;;;;;;3.05;1.80;;;;;;;;;;5024115;28;20048;-57
2024/03/13 12:57:43;;;;;;;3.53;1.80;;;;;;;;;;5030354;28;20079;-60
2024/03/13 13:00:13;;;;;;;2.65;1.55;;;;;;;;;;5031063;28;20041;-59
2024/03/13 13:02:42;;;;;;;3.20;1.70;;;;;;;;;;5026865;28;20045;-58
2024/03/13 13:05:10;;;;;;;3.08;1.58;;;;;;;;;;5030002;28;20079;-58
2024/03/13 13:07:38;;;;;;;3.38;1.85;;;;;;;;;;5030512;28;20046;-57
2024/03/13 13:10:08;;;;;;;3.75;1.88;;;;;;;;;;5034924;28;20468;-59
2024/03/13 13:12:35;;;;;;;3.75;1.80;;;;;;;;;;5034941;28;20084;-58
2024/03/13 13:15:02;;;;;;;2.83;1.80;;;;;;;;;;5035158;28;20084;-58
2024/03/13 13:17:29;;;;;;;2.70;1.63;;;;;;;;;;5034615;28;20064;-55
2024/03/13 13:19:56;;;;;;;3.35;1.65;;;;;;;;;;5035169;28;20049;-59
2024/03/13 13:22:23;;;;;;;2.30;1.58;;;;;;;;;;5034568;28;20118;-59
2024/03/13 13:24:50;;;;;;;3.83;1.77;;;;;;;;;;5030805;28;20041;-57
2024/03/13 13:27:17;;;;;;;3.25;1.42;;;;;;;;;;5034290;28;20139;-57
2024/03/13 13:29:44;;;;;;;3.47;1.60;;;;;;;;;;5034643;28;20045;-58
2024/03/13 13:32:12;;;;;;;3.58;1.67;;;;;;;;;;5034356;28;20053;-59
2024/03/13 13:34:39;;;;;;;2.80;1.60;;;;;;;;;;5027262;28;20066;-58
2024/03/13 13:37:09;;;;;;;4.82;1.70;;;;;;;;;;5061557;28;20133;-58
2024/03/13 13:39:36;;;;;;;3.97;1.58;;;;;;;;;;5026355;28;20532;-59
2024/03/13 13:42:04;;;;;;;3.17;1.70;;;;;;;;;;5027729;28;20250;-56
2024/03/13 13:44:32;;;;;;;2.28;1.38;;;;;;;;;;5025392;28;20073;-58
2024/03/13 13:46:59;;;;;;;2.70;1.50;;;;;;;;;;5021195;28;20045;-57
2024/03/13 13:49:26;;;;;;;2.38;1.52;;;;;;;;;;5030113;28;20069;-58
2024/03/13 13:51:53;;;;;;;3.45;1.60;;;;;;;;;;5059511;28;20083;-56
2024/03/13 13:54:19;;;;;;;3.08;1.58;;;;;;;;;;5027400;28;20048;-57
2024/03/13 13:56:46;;;;;;;2.78;1.58;;;;;;;;;;5033885;28;20491;-58
2024/03/13 13:59:13;;;;;;;4.03;1.75;;;;;;;;;;5031826;28;20810;-78
2024/03/13 14:01:40;;;;;;;2.60;1.52;;;;;;;;;;5022970;28;20050;-58
2024/03/13 14:04:07;;;;;;;3.50;1.85;;;;;;;;;;5033655;28;20063;-55
2024/03/13 14:06:35;;;;;;;3.00;1.52;;;;;;;;;;5034238;28;20060;-65
2024/03/13 14:09:02;;;;;;;3.13;1.55;;;;;;;;;;5034399;28;20043;-65
2024/03/13 14:11:29;;;;;;;2.88;1.90;;;;;;;;;;5033015;28;20045;-61
2024/03/13 14:13:56;;;;;;;4.32;1.70;;;;;;;;;;5015761;28;20064;-53
2024/03/13 14:16:22;;;;;;;4.05;1.80;;;;;;;;;;5021963;28;20049;-57
2024/03/13 14:18:49;;;;;;;8.43;4.95;;;;;;;;;;5026023;28;20056;-59
2024/03/13 14:21:20;;;;;;;6.10;3.22;;;;;;;;;;5033165;28;20056;-58
2024/03/13 14:23:48;;;;;;;7.57;3.13;;;;;;;;;;5022026;28;20524;-56
2024/03/13 14:26:15;;;;;;;5.25;1.92;;;;;;;;;;5055330;28;20057;-57
2024/03/13 14:28:46;;;;;;;3.22;1.70;;;;;;;;;;5032334;28;20145;-57
2024/03/13 14:31:14;;;;;;;3.30;1.70;;;;;;;;;;5030870;28;20352;-58
2024/03/13 14:33:41;;;;;;;3.35;1.80;;;;;;;;;;5029195;28;20045;-59
2024/03/13 14:36:10;;;;;;;3.80;1.98;;;;;;;;;;5026682;28;20102;-55
2024/03/13 14:38:37;;;;;;;3.78;1.70;;;;;;;;;;5033407;28;20497;-57
2024/03/13 14:41:07;;;;;;;4.20;2.15;;;;;;;;;;5031561;28;20055;-57
2024/03/13 14:43:34;;;;;;;4.17;2.10;;;;;;;;;;5033542;28;20321;-58
2024/03/13 14:46:01;;;;;;;4.85;2.10;;;;;;;;;;5022617;28;20124;-57
2024/03/13 14:48:28;;;;;;;4.47;2.03;;;;;;;;;;5028474;28;20053;-59
2024/03/13 14:50:55;;;;;;;3.03;1.60;;;;;;;;;;5032966;28;20051;-59
2024/03/13 14:53:22;;;;;;;5.43;1.83;;;;;;;;;;5032901;28;20052;-58
2024/03/13 14:55:49;;;;;;;3.20;1.70;;;;;;;;;;5031544;28;20048;-57
2024/03/13 14:58:16;;;;;;;2.58;1.42;;;;;;;;;;5032588;28;20077;-57
2024/03/13 15:00:42;;;;;;;2.88;1.60;;;;;;;;;;5032469;28;20060;-59
2024/03/13 15:03:09;;;;;;;2.88;1.70;;;;;;;;;;5032891;28;20654;-59
2024/03/13 15:05:36;;;;;;;3.65;1.75;;;;;;;;;;5031301;28;20480;-59